This is the latest recevied weather packets stored in our database for station/object W3AJR. If no packets are shown the sender has not sent any weather packets the latest 1 day(s).
| Time | Temp. | Humidity | Pressure | Rain* | Wind** | Luminosity | Snow |
|---|---|---|---|---|---|---|---|
| 1778099251 | 21.11° C | 80% | 1007 hPa | 0 mm | - | 254 W/m² | - |
| 1778096515 | 20.56° C | 81% | 1007.5 hPa | 0 mm | - | 304 W/m² | - |
| 1778096213 | 20.56° C | 81% | 1007.5 hPa | 0 mm | - | 309 W/m² | - |
| 1778093787 | 19.44° C | 83% | 1008 hPa | 0 mm | - | 77 W/m² | - |
| 1778092270 | 19.44° C | 84% | 1008.3 hPa | 0 mm | - | 192 W/m² | - |
| 1778090756 | 19.44° C | 85% | 1008.5 hPa | 0 mm | - | 198 W/m² | - |
| 1778090149 | 18.89° C | 86% | 1008.4 hPa | 0 mm | - | 252 W/m² | - |
| 1778088938 | 18.89° C | 86% | 1008.5 hPa | 0 mm | - | 195 W/m² | - |
| 1778088028 | 18.33° C | 87% | 1008.4 hPa | 0 mm | - | 140 W/m² | - |
| 1778087423 | 18.33° C | 88% | 1008.5 hPa | 0 mm | - | 156 W/m² | - |
| 1778085903 | 17.78° C | 88% | 1008.8 hPa | 0 mm | - | 199 W/m² | - |
| 1778084689 | 17.78° C | 88% | 1009.2 hPa | 0 mm | - | 339 W/m² | - |
| 1778083781 | 17.78° C | 88% | 1009 hPa | 0 mm | - | 410 W/m² | - |
| 1778079029 | 16.11° C | 98% | 1009.3 hPa | 0 mm | - | 290 W/m² | - |
| 1778078423 | 15.56° C | 99% | 1009.8 hPa | 1.27 mm | - | 166 W/m² | - |
| 1778077516 | 15.56° C | 99% | 1009.6 hPa | 0 mm | - | 99 W/m² | - |
| 1778077214 | 15.56° C | 99% | 1009.3 hPa | 0 mm | - | 101 W/m² | - |
| 1778076610 | 15.56° C | 99% | 1009.5 hPa | 0 mm | - | 96 W/m² | - |
| 1778075093 | 15.56° C | 98% | 1009.6 hPa | 0 mm | - | 57 W/m² | - |
| 1778073578 | 15.56° C | 98% | 1009.6 hPa | 0 mm | - | 65 W/m² | - |
| 1778072668 | 15° C | 97% | 1009.5 hPa | 0 mm | - | 49 W/m² | - |
| 1778071762 | 15.56° C | 96% | 1009.8 hPa | 1.27 mm | - | 28 W/m² | - |
| 1778071459 | 15.56° C | 96% | 1010 hPa | 4.32 mm | - | 18 W/m² | - |
| 1778071157 | 15.56° C | 96% | 1009.6 hPa | 3.05 mm | - | 29 W/m² | - |
| 1778070552 | 15.56° C | 94% | 1009.6 hPa | 3.05 mm | - | 22 W/m² | - |
* Rain latest hour (hover to see other rain measurements)
** Current wind speed in m/s (hover to see current wind gust speed)